createdAt,value
2022-08-26T00:00:12.398Z,5.02
2022-08-26T00:01:09.742Z,5.03
2022-08-26T00:02:07.400Z,4.57
2022-08-26T00:03:06.280Z,4.96
2022-08-26T00:04:04.837Z,4.95
2022-08-26T00:05:02.629Z,5.11
2022-08-26T00:06:00.629Z,4.84
2022-08-26T00:06:58.052Z,4.91
2022-08-26T00:07:55.936Z,4.59
2022-08-26T00:08:53.492Z,4.45
2022-08-26T00:09:50.870Z,4.51
2022-08-26T00:10:51.967Z,4.90
2022-08-26T00:11:49.393Z,4.81
2022-08-26T00:12:48.578Z,4.54
2022-08-26T00:13:49.525Z,4.93
2022-08-26T00:14:47.058Z,5.49
2022-08-26T00:15:46.656Z,4.82
2022-08-26T00:16:47.875Z,4.47
2022-08-26T00:17:46.238Z,4.87
2022-08-26T00:18:45.372Z,5.21
2022-08-26T00:19:42.794Z,4.92
2022-08-26T00:20:40.666Z,5.21
2022-08-26T00:21:40.262Z,5.13
2022-08-26T00:22:37.642Z,4.82
2022-08-26T00:23:35.674Z,4.82
2022-08-26T00:24:33.070Z,4.84
2022-08-26T00:25:31.233Z,5.08
2022-08-26T00:26:29.283Z,5.22
2022-08-26T00:27:26.724Z,4.71
2022-08-26T00:28:25.515Z,5.04
2022-08-26T00:29:23.217Z,4.87
2022-08-26T00:30:24.328Z,4.67
2022-08-26T00:31:24.039Z,4.73
2022-08-26T00:32:21.430Z,4.50
2022-08-26T00:33:20.069Z,4.30
2022-08-26T00:34:19.622Z,4.68
2022-08-26T00:35:17.558Z,5.21
2022-08-26T00:36:20.360Z,5.27
2022-08-26T00:37:18.750Z,5.11
2022-08-26T00:38:16.122Z,4.58
2022-08-26T00:39:13.640Z,5.17
2022-08-26T00:40:15.360Z,5.16
2022-08-26T00:41:12.797Z,5.13
2022-08-26T00:42:10.668Z,4.57
2022-08-26T00:43:09.585Z,4.78
2022-08-26T00:44:08.396Z,4.67
2022-08-26T00:45:10.322Z,5.12
2022-08-26T00:46:09.202Z,5.23
2022-08-26T00:47:10.134Z,5.49
2022-08-26T00:48:08.435Z,4.88
2022-08-26T00:49:19.230Z,4.71
2022-08-26T00:50:19.271Z,4.42
2022-08-26T00:51:29.855Z,4.76
2022-08-26T00:52:28.356Z,4.87
2022-08-26T00:53:28.810Z,4.85
2022-08-26T00:54:30.127Z,4.86
2022-08-26T00:55:38.233Z,4.68
2022-08-26T00:56:44.226Z,4.77
2022-08-26T00:57:45.808Z,5.23
2022-08-26T00:58:45.413Z,4.72
2022-08-26T00:59:45.234Z,4.84
2022-08-26T01:00:43.238Z,4.78
2022-08-26T01:01:44.436Z,4.87
2022-08-26T01:02:44.165Z,5.37
2022-08-26T01:03:46.392Z,5.56
2022-08-26T01:04:44.076Z,5.05
2022-08-26T01:05:42.966Z,5.43
2022-08-26T01:06:41.660Z,4.88
2022-08-26T01:07:41.709Z,4.92
2022-08-26T01:08:39.223Z,4.97
2022-08-26T01:09:36.721Z,5.09
2022-08-26T01:10:34.872Z,4.81
2022-08-26T01:11:33.096Z,4.44
2022-08-26T01:12:34.271Z,5.24
2022-08-26T01:13:32.697Z,4.59
2022-08-26T01:14:34.394Z,4.61
2022-08-26T01:15:36.884Z,4.76
2022-08-26T01:16:35.633Z,4.60
2022-08-26T01:17:33.833Z,4.77
2022-08-26T01:18:31.632Z,4.91
2022-08-26T01:19:36.192Z,4.85
2022-08-26T01:20:52.104Z,5.39
2022-08-26T01:22:14.341Z,4.70
2022-08-26T01:23:12.305Z,5.01
2022-08-26T01:24:11.485Z,4.77
2022-08-26T01:25:12.260Z,4.98
2022-08-26T01:26:19.573Z,4.86
2022-08-26T01:27:19.715Z,4.52
2022-08-26T01:28:21.817Z,5.01
2022-08-26T01:29:20.145Z,5.13
2022-08-26T01:30:17.896Z,5.26
2022-08-26T01:31:17.682Z,4.76
2022-08-26T01:32:19.626Z,4.94
2022-08-26T01:33:20.182Z,5.07
2022-08-26T01:34:17.606Z,4.73
2022-08-26T01:35:15.050Z,5.21
2022-08-26T01:36:13.831Z,5.18
2022-08-26T01:37:15.619Z,5.29
2022-08-26T01:38:13.839Z,4.85
2022-08-26T01:39:11.302Z,5.28
2022-08-26T01:40:14.420Z,5.57
2022-08-26T01:41:19.801Z,5.14
2022-08-26T01:42:26.037Z,4.92
2022-08-26T01:43:26.440Z,5.69
2022-08-26T01:44:26.921Z,4.84
2022-08-26T01:45:27.689Z,4.41
2022-08-26T01:46:28.035Z,5.22
2022-08-26T01:47:30.259Z,4.46
2022-08-26T01:48:31.813Z,4.65
2022-08-26T01:49:29.549Z,4.60
2022-08-26T01:50:32.708Z,5.00
2022-08-26T01:51:31.701Z,4.53
2022-08-26T01:52:33.599Z,4.57
2022-08-26T01:53:31.093Z,4.77
2022-08-26T01:54:29.197Z,5.29
2022-08-26T01:55:33.039Z,4.64
2022-08-26T01:56:33.317Z,5.12
2022-08-26T01:57:35.404Z,4.81
2022-08-26T01:58:36.427Z,4.87
2022-08-26T01:59:35.045Z,4.81
2022-08-26T02:00:34.145Z,4.95
2022-08-26T02:01:31.797Z,5.14
2022-08-26T02:02:29.294Z,5.30
2022-08-26T02:03:28.941Z,5.00
2022-08-26T02:04:33.823Z,5.02
2022-08-26T02:05:31.264Z,4.64
2022-08-26T02:06:30.162Z,4.89
2022-08-26T02:07:28.144Z,4.87
2022-08-26T02:08:33.821Z,4.80
2022-08-26T02:09:31.184Z,4.96
2022-08-26T02:10:28.646Z,4.97
2022-08-26T02:11:26.590Z,4.86
2022-08-26T02:12:26.153Z,4.94
2022-08-26T02:13:26.700Z,4.97
2022-08-26T02:14:28.482Z,4.44
2022-08-26T02:15:26.131Z,4.55
2022-08-26T02:16:27.872Z,4.84
2022-08-26T02:17:38.272Z,4.43
2022-08-26T02:18:39.408Z,4.66
2022-08-26T02:19:39.932Z,4.69
2022-08-26T02:20:37.713Z,4.41
2022-08-26T02:21:35.294Z,3.97
2022-08-26T02:22:32.712Z,4.73
2022-08-26T02:23:30.050Z,4.51
2022-08-26T02:24:30.422Z,4.65
2022-08-26T02:25:41.565Z,4.90
2022-08-26T02:26:39.257Z,5.17
2022-08-26T02:27:36.998Z,5.16
2022-08-26T02:28:38.072Z,5.08
2022-08-26T02:29:40.038Z,4.74
2022-08-26T02:30:40.199Z,4.74
2022-08-26T02:31:37.622Z,4.56
2022-08-26T02:32:35.431Z,5.00
2022-08-26T02:33:32.834Z,4.82
2022-08-26T02:34:32.100Z,4.88
2022-08-26T02:35:30.403Z,5.01
2022-08-26T02:36:28.718Z,4.90
2022-08-26T02:37:29.299Z,5.13
2022-08-26T02:38:26.778Z,5.20
2022-08-26T02:39:24.495Z,4.95
2022-08-26T02:40:24.673Z,5.46
2022-08-26T02:41:23.101Z,5.02
2022-08-26T02:42:20.518Z,5.10
2022-08-26T02:43:18.141Z,4.69
2022-08-26T02:44:15.605Z,5.15
2022-08-26T02:45:13.227Z,4.87
2022-08-26T02:46:21.489Z,5.31
2022-08-26T02:47:25.617Z,4.88
2022-08-26T02:48:26.488Z,4.64
2022-08-26T02:49:24.686Z,5.46
2022-08-26T02:50:22.690Z,5.10
2022-08-26T02:51:20.055Z,5.85
2022-08-26T02:52:17.991Z,5.44
2022-08-26T02:53:16.565Z,5.11
2022-08-26T02:54:22.064Z,4.95
2022-08-26T02:55:19.711Z,5.28
2022-08-26T02:56:17.079Z,4.92
2022-08-26T02:57:15.212Z,5.15
2022-08-26T02:58:12.682Z,5.27
2022-08-26T02:59:12.625Z,5.33
2022-08-26T03:00:12.616Z,5.49
2022-08-26T03:01:19.451Z,5.41
2022-08-26T03:02:17.454Z,4.97
2022-08-26T03:03:16.017Z,4.80
2022-08-26T03:04:14.261Z,4.82
2022-08-26T03:05:13.238Z,4.99
2022-08-26T03:06:10.624Z,4.96
2022-08-26T03:07:08.006Z,4.71
2022-08-26T03:08:06.097Z,4.88
2022-08-26T03:09:04.855Z,5.34
2022-08-26T03:10:08.473Z,5.10
2022-08-26T03:11:06.340Z,5.45
2022-08-26T03:12:03.932Z,5.21
2022-08-26T03:13:01.425Z,4.93
2022-08-26T03:14:03.845Z,4.95
2022-08-26T03:15:01.514Z,5.05
2022-08-26T03:16:00.603Z,5.19
2022-08-26T03:16:58.064Z,5.22
2022-08-26T03:17:56.349Z,4.88
2022-08-26T03:18:54.640Z,5.17
2022-08-26T03:19:57.005Z,5.05
2022-08-26T03:20:54.840Z,5.29
2022-08-26T03:21:52.981Z,5.30
2022-08-26T03:22:56.908Z,5.56
2022-08-26T03:23:54.388Z,5.45
2022-08-26T03:24:56.030Z,5.21
2022-08-26T03:25:53.860Z,5.17
2022-08-26T03:26:52.702Z,4.74
2022-08-26T03:27:50.359Z,5.07
2022-08-26T03:29:06.184Z,5.33
2022-08-26T03:30:22.687Z,4.68
2022-08-26T03:31:20.078Z,5.03
2022-08-26T03:32:22.052Z,5.62
2022-08-26T03:33:25.310Z,5.26
2022-08-26T03:34:23.103Z,4.97
2022-08-26T03:35:22.415Z,5.21
2022-08-26T03:36:20.266Z,4.97
2022-08-26T03:37:17.648Z,4.99
2022-08-26T03:38:15.798Z,5.29
2022-08-26T03:39:13.769Z,4.96
2022-08-26T03:40:11.671Z,5.04
2022-08-26T03:41:11.122Z,5.51
2022-08-26T03:42:09.243Z,5.18
2022-08-26T03:43:09.708Z,5.07
2022-08-26T03:44:08.949Z,4.97
2022-08-26T03:45:09.143Z,5.36
2022-08-26T03:46:07.387Z,5.51
2022-08-26T03:47:06.362Z,5.19
2022-08-26T03:48:04.506Z,5.00
2022-08-26T03:49:02.720Z,5.11
2022-08-26T03:50:00.108Z,5.15
2022-08-26T03:50:57.476Z,5.12
2022-08-26T03:51:54.977Z,5.49
2022-08-26T03:52:54.249Z,5.10
2022-08-26T03:53:51.929Z,4.91
2022-08-26T03:54:49.782Z,5.43
2022-08-26T03:55:47.229Z,5.18
2022-08-26T03:56:49.204Z,6.02
2022-08-26T03:57:46.627Z,5.55
2022-08-26T03:58:44.687Z,5.04
2022-08-26T03:59:43.321Z,4.97
2022-08-26T04:00:40.795Z,5.57
2022-08-26T04:01:38.331Z,5.42
2022-08-26T04:02:35.970Z,5.18
2022-08-26T04:03:51.971Z,4.99
2022-08-26T04:04:49.412Z,5.28
2022-08-26T04:05:51.444Z,5.36
2022-08-26T04:06:48.929Z,5.74
2022-08-26T04:07:47.831Z,5.19
2022-08-26T04:08:46.067Z,5.15
2022-08-26T04:09:43.455Z,5.37
2022-08-26T04:10:40.842Z,5.21
2022-08-26T04:11:39.559Z,5.42
2022-08-26T04:12:38.793Z,5.11
2022-08-26T04:13:36.185Z,4.96
2022-08-26T04:14:35.408Z,5.23
2022-08-26T04:15:35.201Z,4.90
2022-08-26T04:16:33.342Z,4.99
2022-08-26T04:17:30.756Z,5.19
2022-08-26T04:18:32.659Z,5.14
2022-08-26T04:19:34.478Z,5.11
2022-08-26T04:20:32.781Z,5.02
2022-08-26T04:21:30.386Z,5.11
2022-08-26T04:22:27.782Z,5.40
2022-08-26T04:23:26.868Z,5.25
2022-08-26T04:24:25.809Z,5.43
2022-08-26T04:25:24.363Z,5.11
2022-08-26T04:26:22.675Z,4.84
2022-08-26T04:27:20.703Z,4.63
2022-08-26T04:28:18.037Z,5.23
2022-08-26T04:29:18.201Z,5.24
2022-08-26T04:30:15.935Z,5.31
2022-08-26T04:31:15.183Z,4.98
2022-08-26T04:32:12.860Z,4.81
2022-08-26T04:33:12.936Z,5.37
2022-08-26T04:34:11.271Z,5.19
2022-08-26T04:35:11.587Z,5.62
2022-08-26T04:36:09.276Z,5.21
2022-08-26T04:37:07.284Z,5.95
2022-08-26T04:38:05.814Z,5.53
2022-08-26T04:39:05.303Z,5.43
2022-08-26T04:40:05.014Z,5.34
2022-08-26T04:41:05.570Z,5.29
2022-08-26T04:42:13.456Z,5.13
2022-08-26T04:43:10.890Z,5.38
2022-08-26T04:44:08.448Z,5.08
2022-08-26T04:45:09.923Z,5.31
2022-08-26T04:46:08.408Z,5.08
2022-08-26T04:47:06.607Z,5.09
2022-08-26T04:48:04.284Z,5.19
2022-08-26T04:49:01.780Z,4.79
2022-08-26T04:50:00.043Z,5.08
2022-08-26T04:51:00.035Z,5.55
2022-08-26T04:51:57.857Z,5.70
2022-08-26T04:52:55.647Z,5.41
2022-08-26T04:53:57.247Z,5.42
2022-08-26T04:54:54.716Z,5.44
2022-08-26T04:55:52.487Z,5.30
2022-08-26T04:56:52.919Z,5.27
2022-08-26T04:57:50.305Z,5.54
2022-08-26T04:58:49.365Z,5.40
2022-08-26T04:59:46.781Z,5.37
2022-08-26T05:00:47.719Z,5.67
2022-08-26T05:01:46.780Z,5.41
2022-08-26T05:02:46.228Z,5.54
2022-08-26T05:03:43.644Z,5.10
2022-08-26T05:04:43.638Z,5.45
2022-08-26T05:05:42.512Z,5.35
2022-08-26T05:06:39.827Z,5.26
2022-08-26T05:07:37.577Z,5.03
2022-08-26T05:08:35.013Z,5.77
2022-08-26T05:09:32.736Z,5.72
2022-08-26T05:10:30.129Z,5.93
2022-08-26T05:11:27.907Z,5.43
2022-08-26T05:12:26.392Z,5.49
2022-08-26T05:13:26.502Z,5.71
2022-08-26T05:14:23.949Z,5.68
2022-08-26T05:15:21.282Z,5.80
2022-08-26T05:16:19.465Z,5.28
2022-08-26T05:17:17.633Z,5.54
2022-08-26T05:18:17.279Z,5.70
2022-08-26T05:19:19.257Z,5.51
2022-08-26T05:20:16.835Z,5.77
2022-08-26T05:21:20.180Z,5.71
2022-08-26T05:22:17.592Z,5.23
2022-08-26T05:23:16.587Z,5.09
2022-08-26T05:24:14.069Z,5.61
2022-08-26T05:25:11.505Z,5.34
2022-08-26T05:26:08.853Z,5.39
2022-08-26T05:27:11.530Z,5.41
2022-08-26T05:28:10.403Z,5.85
2022-08-26T05:29:08.253Z,5.16
2022-08-26T05:30:06.645Z,5.28
2022-08-26T05:31:14.728Z,5.50
2022-08-26T05:32:14.937Z,5.06
2022-08-26T05:33:12.912Z,5.21
2022-08-26T05:34:10.307Z,5.59
2022-08-26T05:35:09.024Z,5.71
2022-08-26T05:36:17.728Z,5.40
2022-08-26T05:37:15.617Z,5.76
2022-08-26T05:38:16.173Z,5.34
2022-08-26T05:39:13.590Z,5.44
2022-08-26T05:40:11.790Z,5.21
2022-08-26T05:41:24.856Z,5.47
2022-08-26T05:42:22.235Z,5.08
2022-08-26T05:43:20.167Z,5.23
2022-08-26T05:44:19.003Z,5.70
2022-08-26T05:45:17.024Z,5.41
2022-08-26T05:46:14.809Z,5.07
2022-08-26T05:47:12.265Z,4.98
2022-08-26T05:48:10.125Z,5.01
2022-08-26T05:49:12.456Z,5.50
2022-08-26T05:50:10.231Z,5.89
2022-08-26T05:51:11.331Z,5.62
2022-08-26T05:52:08.674Z,5.33
2022-08-26T05:53:09.128Z,5.43
2022-08-26T05:54:06.976Z,5.50
2022-08-26T05:55:04.837Z,5.60
2022-08-26T05:56:02.955Z,5.34
2022-08-26T05:57:00.470Z,5.26
2022-08-26T05:57:57.828Z,5.38
2022-08-26T05:58:59.606Z,5.47
2022-08-26T05:59:57.211Z,5.79
2022-08-26T06:00:57.811Z,5.43
2022-08-26T06:01:55.379Z,4.82
2022-08-26T06:02:53.002Z,5.06
2022-08-26T06:03:52.546Z,5.48
2022-08-26T06:04:49.911Z,5.39
2022-08-26T06:05:49.267Z,4.63
2022-08-26T06:06:46.750Z,5.66
2022-08-26T06:08:02.773Z,5.82
2022-08-26T06:09:03.712Z,5.19
2022-08-26T06:10:28.214Z,5.00
2022-08-26T06:11:20.069Z,4.94
2022-08-26T06:12:18.539Z,4.83
2022-08-26T06:13:18.388Z,4.87
2022-08-26T06:14:15.783Z,5.61
2022-08-26T06:15:13.196Z,5.43
2022-08-26T06:16:15.899Z,4.86
2022-08-26T06:17:13.853Z,5.10
2022-08-26T06:18:12.116Z,5.12
2022-08-26T06:19:11.604Z,5.59
2022-08-26T06:20:09.401Z,5.07
2022-08-26T06:21:33.005Z,5.02
2022-08-26T06:22:49.004Z,4.92
2022-08-26T06:24:06.398Z,5.22
2022-08-26T06:25:23.708Z,5.25
2022-08-26T06:26:22.547Z,5.02
2022-08-26T06:27:19.906Z,5.17
2022-08-26T06:28:17.534Z,5.07
2022-08-26T06:29:24.376Z,5.17
2022-08-26T06:30:22.162Z,5.39
2022-08-26T06:31:20.115Z,5.19
2022-08-26T06:32:17.880Z,5.98
2022-08-26T06:33:15.271Z,6.08
2022-08-26T06:34:12.653Z,6.26
2022-08-26T06:35:11.860Z,5.85
2022-08-26T06:36:14.908Z,5.83
2022-08-26T06:37:12.574Z,6.15
2022-08-26T06:38:10.093Z,6.04
2022-08-26T06:39:10.053Z,5.63
2022-08-26T06:40:07.743Z,6.04
2022-08-26T06:41:05.202Z,6.33
2022-08-26T06:42:03.245Z,6.84
2022-08-26T06:43:03.593Z,6.58
2022-08-26T06:44:02.012Z,5.91
2022-08-26T06:44:59.518Z,6.04
2022-08-26T06:46:01.895Z,6.12
2022-08-26T06:47:02.252Z,6.69
2022-08-26T06:47:59.625Z,6.68
2022-08-26T06:48:58.395Z,6.51
2022-08-26T06:49:56.001Z,6.18
2022-08-26T06:51:01.777Z,5.65
2022-08-26T06:51:59.260Z,5.64
2022-08-26T06:52:56.767Z,5.99
2022-08-26T06:53:59.467Z,5.83
2022-08-26T06:54:56.941Z,6.14
2022-08-26T06:55:54.295Z,6.31
2022-08-26T06:56:51.670Z,6.41
2022-08-26T06:57:49.029Z,6.63
2022-08-26T06:58:47.990Z,6.34
2022-08-26T06:59:45.472Z,6.52
2022-08-26T07:00:47.327Z,6.38
2022-08-26T07:01:45.284Z,6.37
2022-08-26T07:02:46.887Z,6.14
2022-08-26T07:03:44.479Z,5.91
2022-08-26T07:04:44.462Z,6.11
2022-08-26T07:05:45.323Z,6.19
2022-08-26T07:06:48.817Z,5.95
2022-08-26T07:07:47.136Z,5.98
2022-08-26T07:08:44.516Z,5.68
2022-08-26T07:09:41.868Z,6.40
2022-08-26T07:10:39.484Z,6.12
2022-08-26T07:11:38.590Z,5.99
2022-08-26T07:12:36.980Z,5.94
2022-08-26T07:13:37.601Z,6.14
2022-08-26T07:14:35.374Z,5.91
2022-08-26T07:15:35.791Z,6.45
2022-08-26T07:16:33.551Z,5.66
2022-08-26T07:17:30.930Z,6.17
2022-08-26T07:18:32.317Z,5.63
2022-08-26T07:19:31.969Z,5.52
2022-08-26T07:20:29.423Z,4.80
2022-08-26T07:21:26.905Z,5.60
2022-08-26T07:22:24.235Z,5.10
2022-08-26T07:23:21.629Z,5.08
2022-08-26T07:24:20.066Z,4.80
2022-08-26T07:25:19.301Z,4.87
2022-08-26T07:26:23.898Z,5.15
2022-08-26T07:27:22.277Z,5.02
2022-08-26T07:28:20.100Z,4.61
2022-08-26T07:29:18.465Z,4.71
2022-08-26T07:30:16.692Z,5.05
2022-08-26T07:31:15.517Z,4.91
2022-08-26T07:32:14.921Z,4.61
2022-08-26T07:33:12.261Z,4.75
2022-08-26T07:34:10.809Z,4.90
2022-08-26T07:35:08.438Z,5.14
2022-08-26T07:36:07.123Z,5.17
2022-08-26T07:37:04.814Z,5.17
2022-08-26T07:38:06.184Z,5.34
2022-08-26T07:39:04.310Z,5.60
2022-08-26T07:40:01.922Z,5.66
2022-08-26T07:40:59.510Z,5.00
2022-08-26T07:42:07.382Z,5.41
2022-08-26T07:43:05.311Z,5.40
2022-08-26T07:44:02.917Z,5.33
2022-08-26T07:45:01.793Z,5.01
2022-08-26T07:45:59.185Z,5.31
2022-08-26T07:46:56.623Z,5.51
2022-08-26T07:47:54.609Z,5.69
2022-08-26T07:48:52.833Z,5.61
2022-08-26T07:49:52.716Z,5.57
2022-08-26T07:50:51.016Z,5.37
2022-08-26T07:51:51.049Z,5.32
2022-08-26T07:52:49.519Z,5.44
2022-08-26T07:53:48.026Z,5.41
2022-08-26T07:54:49.961Z,5.43
2022-08-26T07:55:47.715Z,5.58
2022-08-26T07:56:45.162Z,5.79
2022-08-26T07:57:42.790Z,5.35
2022-08-26T07:58:40.491Z,5.48
2022-08-26T07:59:38.053Z,5.77
2022-08-26T08:00:35.638Z,5.28
2022-08-26T08:01:33.631Z,5.50
2022-08-26T08:02:31.649Z,5.17
2022-08-26T08:03:29.487Z,5.24
2022-08-26T08:04:28.126Z,5.36
2022-08-26T08:05:27.312Z,5.29
2022-08-26T08:06:33.220Z,5.64
2022-08-26T08:07:44.907Z,5.57
2022-08-26T08:08:43.842Z,5.74
2022-08-26T08:09:42.318Z,6.03
2022-08-26T08:10:40.713Z,5.59
2022-08-26T08:11:39.674Z,5.01
2022-08-26T08:12:37.631Z,5.37
2022-08-26T08:13:35.165Z,5.62
2022-08-26T08:14:35.818Z,5.87
2022-08-26T08:15:34.591Z,5.46
2022-08-26T08:16:33.389Z,5.65
2022-08-26T08:17:35.085Z,5.88
2022-08-26T08:18:33.409Z,5.48
2022-08-26T08:19:37.023Z,5.28
2022-08-26T08:20:36.634Z,5.28
2022-08-26T08:21:34.009Z,5.28
2022-08-26T08:22:32.530Z,4.95
2022-08-26T08:23:31.629Z,5.26
2022-08-26T08:24:29.055Z,5.22
2022-08-26T08:25:26.566Z,5.52
2022-08-26T08:26:25.391Z,5.74
2022-08-26T08:27:23.959Z,5.19
2022-08-26T08:28:21.612Z,5.32
2022-08-26T08:29:19.009Z,5.46
2022-08-26T08:30:22.664Z,4.95
2022-08-26T08:31:54.341Z,5.19
2022-08-26T08:32:45.708Z,5.18
2022-08-26T08:33:43.377Z,4.65
2022-08-26T08:35:43.709Z,5.19
2022-08-26T08:36:41.611Z,5.44
2022-08-26T08:37:39.151Z,5.51
2022-08-26T08:38:36.558Z,5.69
2022-08-26T08:39:33.968Z,5.75
2022-08-26T08:40:34.278Z,5.64
2022-08-26T08:41:50.169Z,5.67
2022-08-26T08:42:57.860Z,5.58
2022-08-26T08:43:55.797Z,5.36
2022-08-26T08:44:57.240Z,5.71
2022-08-26T08:45:59.939Z,5.53
2022-08-26T08:47:16.824Z,5.26
2022-08-26T08:48:22.709Z,5.50
2022-08-26T08:49:26.222Z,5.43
2022-08-26T08:50:30.194Z,5.26
2022-08-26T08:51:40.196Z,5.32
2022-08-26T08:52:40.944Z,5.04
2022-08-26T08:53:43.179Z,4.89
2022-08-26T08:54:40.637Z,4.79
2022-08-26T08:56:04.881Z,5.33
2022-08-26T08:57:11.292Z,5.38
2022-08-26T08:58:15.439Z,4.99
2022-08-26T08:59:25.974Z,5.21
2022-08-26T09:00:30.069Z,4.92
2022-08-26T09:01:35.171Z,4.70
2022-08-26T09:02:49.664Z,4.95
2022-08-26T09:04:12.226Z,4.47
2022-08-26T09:05:23.239Z,4.90
2022-08-26T09:06:20.887Z,5.03
2022-08-26T09:07:22.201Z,4.73
2022-08-26T09:08:23.519Z,4.88
2022-08-26T09:09:46.136Z,4.90
2022-08-26T09:10:49.889Z,5.08
2022-08-26T09:11:47.290Z,4.85
2022-08-26T09:12:46.191Z,4.78
2022-08-26T09:13:48.469Z,4.79
2022-08-26T09:14:48.240Z,5.03
2022-08-26T09:15:57.415Z,4.95
2022-08-26T09:17:07.010Z,5.01
2022-08-26T09:18:25.375Z,4.51
2022-08-26T09:19:35.061Z,4.69
2022-08-26T09:20:38.473Z,5.01
2022-08-26T09:21:37.205Z,4.72
2022-08-26T09:22:36.562Z,5.07
2022-08-26T09:23:35.758Z,5.19
2022-08-26T09:24:39.558Z,5.08
2022-08-26T09:25:46.911Z,4.99
2022-08-26T09:26:48.010Z,5.34
2022-08-26T09:27:47.588Z,5.52
2022-08-26T09:28:54.799Z,4.91
2022-08-26T09:29:52.249Z,4.83
2022-08-26T09:31:11.149Z,4.58
2022-08-26T09:32:25.334Z,4.68
2022-08-26T09:33:27.801Z,4.80
2022-08-26T09:34:27.556Z,4.85
2022-08-26T09:35:28.329Z,4.68
2022-08-26T09:36:41.498Z,4.70
2022-08-26T09:38:42.658Z,4.53
2022-08-26T09:39:40.282Z,4.53
2022-08-26T09:40:38.989Z,4.73
2022-08-26T09:41:37.089Z,4.50
2022-08-26T09:42:34.426Z,4.81
2022-08-26T09:43:32.791Z,5.03
2022-08-26T09:44:31.329Z,4.91
2022-08-26T09:45:28.907Z,4.88
2022-08-26T09:46:28.218Z,4.92
2022-08-26T09:47:31.947Z,4.74
2022-08-26T09:48:29.361Z,4.60
2022-08-26T09:49:32.713Z,5.05
2022-08-26T09:50:53.346Z,4.89
2022-08-26T09:52:03.523Z,4.66
2022-08-26T09:53:12.906Z,5.14
2022-08-26T09:54:25.242Z,5.49
2022-08-26T09:55:27.907Z,5.40
2022-08-26T09:56:28.960Z,5.00
2022-08-26T09:57:28.312Z,4.98
2022-08-26T09:58:34.207Z,4.86
2022-08-26T09:59:31.699Z,4.42
2022-08-26T10:00:30.172Z,4.24
2022-08-26T10:01:33.314Z,4.87
2022-08-26T10:02:33.629Z,4.65
2022-08-26T10:03:33.487Z,4.87
2022-08-26T10:04:31.286Z,4.76
2022-08-26T10:05:31.451Z,5.27
2022-08-26T10:06:28.840Z,5.12
2022-08-26T10:07:39.322Z,5.00
2022-08-26T10:08:39.311Z,5.32
2022-08-26T10:09:39.791Z,5.17
2022-08-26T10:10:40.859Z,5.52
2022-08-26T10:11:57.726Z,5.58
2022-08-26T10:13:00.609Z,5.08
2022-08-26T10:14:04.349Z,5.22
2022-08-26T10:15:08.207Z,5.21
2022-08-26T10:16:19.360Z,5.26
2022-08-26T10:17:26.683Z,5.17
2022-08-26T10:18:34.658Z,4.94
2022-08-26T10:19:55.647Z,5.25
2022-08-26T10:20:58.968Z,5.15
2022-08-26T10:22:03.565Z,5.52
2022-08-26T10:23:00.995Z,5.91
2022-08-26T10:24:01.978Z,5.64
2022-08-26T10:25:03.099Z,5.98
2022-08-26T10:26:07.155Z,6.55
2022-08-26T10:27:14.039Z,6.28
2022-08-26T10:28:22.100Z,6.41
2022-08-26T10:29:34.291Z,5.16
2022-08-26T10:30:35.368Z,5.97
2022-08-26T10:31:40.305Z,5.87
2022-08-26T10:32:42.930Z,5.15
2022-08-26T10:33:40.475Z,5.90
2022-08-26T10:34:38.242Z,6.38
2022-08-26T10:35:41.028Z,5.38
2022-08-26T10:37:10.837Z,5.74
2022-08-26T10:38:15.521Z,6.16
2022-08-26T10:39:19.186Z,6.81
2022-08-26T10:40:25.267Z,5.63
2022-08-26T10:41:27.487Z,6.60
2022-08-26T10:42:35.387Z,6.04
2022-08-26T10:43:53.516Z,6.40
2022-08-26T10:44:54.255Z,5.70
2022-08-26T10:46:10.105Z,5.30
2022-08-26T10:47:14.781Z,6.25
2022-08-26T10:48:19.387Z,5.49
2022-08-26T10:49:18.928Z,5.91
2022-08-26T10:50:18.047Z,6.03
2022-08-26T10:51:26.964Z,5.98
2022-08-26T10:52:36.705Z,5.81
2022-08-26T10:53:56.912Z,5.75
2022-08-26T10:55:00.142Z,5.69
2022-08-26T10:56:06.370Z,5.68
2022-08-26T10:57:27.902Z,5.78
2022-08-26T10:58:29.316Z,5.38
2022-08-26T10:59:28.833Z,5.28
2022-08-26T11:01:10.527Z,5.43
2022-08-26T11:02:14.866Z,5.27
2022-08-26T11:03:21.648Z,5.23
2022-08-26T11:04:25.790Z,4.68
2022-08-26T11:05:23.685Z,4.94
2022-08-26T11:06:21.434Z,5.24
2022-08-26T11:07:32.773Z,5.28
2022-08-26T11:08:30.791Z,5.25
2022-08-26T11:09:47.832Z,5.29
2022-08-26T11:11:00.159Z,5.28
2022-08-26T11:11:57.724Z,5.74
2022-08-26T11:12:55.167Z,5.85
2022-08-26T11:13:56.584Z,5.50
2022-08-26T11:14:58.827Z,5.28
2022-08-26T11:15:58.699Z,5.50
2022-08-26T11:17:00.194Z,5.79
2022-08-26T11:18:05.821Z,5.74
2022-08-26T11:19:03.977Z,5.44
2022-08-26T11:20:07.384Z,4.82
2022-08-26T11:21:25.294Z,5.41
2022-08-26T11:22:31.131Z,5.09
2022-08-26T11:23:28.563Z,5.21
2022-08-26T11:24:42.892Z,5.17
2022-08-26T11:26:06.510Z,5.65
2022-08-26T11:27:08.017Z,5.39
2022-08-26T11:28:05.659Z,5.59
2022-08-26T11:29:03.243Z,5.47
2022-08-26T11:30:04.762Z,5.82
2022-08-26T11:31:03.323Z,5.61
2022-08-26T11:32:02.640Z,5.70
2022-08-26T11:33:00.175Z,5.57
2022-08-26T11:34:07.156Z,5.83
2022-08-26T11:35:31.969Z,6.18
2022-08-26T11:36:41.909Z,6.08
2022-08-26T11:37:41.213Z,5.99
2022-08-26T11:38:42.427Z,5.83
2022-08-26T11:39:56.892Z,5.78
2022-08-26T11:41:06.249Z,6.20
2022-08-26T11:42:16.354Z,5.72
2022-08-26T11:43:21.807Z,5.66
2022-08-26T11:44:21.173Z,6.16
2022-08-26T11:45:18.582Z,6.15
2022-08-26T11:46:24.121Z,5.84
2022-08-26T11:47:32.319Z,5.75
2022-08-26T11:48:33.841Z,6.17
2022-08-26T11:49:33.451Z,5.97
2022-08-26T11:50:31.257Z,5.92
2022-08-26T11:51:29.353Z,5.73
2022-08-26T11:52:29.367Z,6.30
2022-08-26T11:53:28.279Z,6.39
2022-08-26T11:54:35.353Z,6.16
2022-08-26T11:55:43.341Z,6.21
2022-08-26T11:56:42.409Z,6.25
2022-08-26T11:57:44.996Z,6.37
2022-08-26T11:58:44.094Z,6.53
2022-08-26T11:59:42.394Z,6.54
2022-08-26T12:00:54.816Z,6.81
2022-08-26T12:01:54.714Z,6.27
2022-08-26T12:02:52.820Z,6.67
2022-08-26T12:03:52.840Z,6.15
2022-08-26T12:04:52.273Z,6.45
2022-08-26T12:05:51.847Z,6.65
2022-08-26T12:06:51.729Z,6.37
2022-08-26T12:07:53.017Z,6.61
2022-08-26T12:08:53.671Z,6.42
2022-08-26T12:09:52.842Z,5.95
2022-08-26T12:11:01.506Z,6.38
2022-08-26T12:12:13.555Z,6.49
2022-08-26T12:13:20.761Z,6.39
2022-08-26T12:14:24.536Z,6.24
2022-08-26T12:15:24.706Z,6.46
2022-08-26T12:16:26.068Z,6.69
2022-08-26T12:17:27.826Z,5.82
2022-08-26T12:18:33.472Z,6.23
2022-08-26T12:19:33.438Z,5.81
2022-08-26T12:20:31.612Z,5.92
2022-08-26T12:21:34.668Z,5.68
2022-08-26T12:22:34.685Z,5.72
2022-08-26T12:23:35.151Z,5.58
2022-08-26T12:24:34.031Z,5.85
2022-08-26T12:25:36.010Z,6.00
2022-08-26T12:26:36.014Z,6.09
2022-08-26T12:27:35.538Z,5.70
2022-08-26T12:28:33.672Z,5.91
2022-08-26T12:29:31.520Z,5.65
2022-08-26T12:30:28.881Z,6.16
2022-08-26T12:31:31.290Z,5.31
2022-08-26T12:32:31.272Z,5.64
2022-08-26T12:33:31.014Z,5.56
2022-08-26T12:34:28.541Z,5.59
2022-08-26T12:35:30.180Z,5.41
2022-08-26T12:36:35.258Z,5.31
2022-08-26T12:37:41.698Z,5.12
2022-08-26T12:38:42.256Z,5.43
2022-08-26T12:39:41.571Z,5.08
2022-08-26T12:40:46.397Z,4.90
2022-08-26T12:41:51.533Z,5.32
2022-08-26T12:42:48.927Z,5.24
2022-08-26T12:43:46.445Z,5.37
2022-08-26T12:45:00.999Z,4.91
2022-08-26T12:46:02.108Z,5.21
2022-08-26T12:47:08.345Z,5.15
2022-08-26T12:48:08.009Z,5.00
2022-08-26T12:49:05.595Z,4.77
2022-08-26T12:50:06.332Z,4.85
2022-08-26T12:51:06.674Z,5.37
2022-08-26T12:52:05.614Z,5.70
2022-08-26T12:53:08.936Z,5.04
2022-08-26T12:54:13.569Z,4.84
2022-08-26T12:55:22.990Z,4.98
2022-08-26T12:56:29.384Z,4.68
2022-08-26T12:57:29.192Z,4.90
2022-08-26T12:58:29.915Z,4.88
2022-08-26T12:59:27.321Z,4.73
2022-08-26T13:00:28.466Z,4.90
2022-08-26T13:01:28.228Z,4.93
2022-08-26T13:02:36.743Z,5.33
2022-08-26T13:03:34.273Z,5.29
2022-08-26T13:04:33.029Z,5.17
2022-08-26T13:05:35.790Z,4.75
2022-08-26T13:06:35.238Z,4.92
2022-08-26T13:07:33.260Z,4.77
2022-08-26T13:08:32.560Z,4.59
2022-08-26T13:09:33.924Z,4.30
2022-08-26T13:10:36.581Z,4.54
2022-08-26T13:11:40.057Z,4.72
2022-08-26T13:12:38.201Z,4.72
2022-08-26T13:13:35.799Z,5.11
2022-08-26T13:14:33.204Z,4.42
2022-08-26T13:15:30.625Z,4.38
2022-08-26T13:16:29.572Z,4.50
2022-08-26T13:17:28.441Z,4.58
2022-08-26T13:18:26.007Z,4.62
2022-08-26T13:19:29.646Z,5.00
2022-08-26T13:20:27.092Z,4.69
2022-08-26T13:21:29.701Z,4.57
2022-08-26T13:22:34.917Z,4.36
2022-08-26T13:23:32.342Z,4.82
2022-08-26T13:24:38.448Z,5.27
2022-08-26T13:25:35.837Z,5.04
2022-08-26T13:26:33.407Z,5.20
2022-08-26T13:27:30.812Z,5.18
2022-08-26T13:28:28.419Z,4.99
2022-08-26T13:29:25.937Z,5.51
2022-08-26T13:30:23.303Z,4.80
2022-08-26T13:31:20.902Z,5.13
2022-08-26T13:32:27.583Z,4.90
2022-08-26T13:33:25.356Z,4.55
2022-08-26T13:34:24.055Z,4.61